Hayward Executive, CA

10:21 AM PDT on September 02, 2014 (GMT -0700)
San Carlos | Change Station
CLOSE
Current Station
Airport
Location: San Carlos,
Elevation: 3 ft
Nearby Weather Stations

Elev 3 ft 37.51 °N, 122.25 °W | Updated 33 minutes ago

Haze
Haze
66 °F
Feels Like 66 °F
N
0
Wind Variable Wind from North

Today
High -- | Low -- °F
--% Chance of Precip.
Yesterday
High -- | Low -- °F
Precip. -- in
6:39 AM 7:35 PM
First Quarter, 53% visible
Pressure 29.86 in
Visibility 6.0 miles
Clouds Scattered Clouds 1500 ft
Scattered Clouds 2000 ft
Dew Point 59 °F
Humidity 78%
Rainfall 0.00 in
Snow Depth Not available.
UV 3 out of 12
Pollen 7.30 out of 12
Ozone Good
PM2.5 Moderate
Flu Activity Not available.
METAR KSQL 021648Z 00000KT 6SM HZ SCT015 SCT020 19/15 A2986

More Conditions Fewer Conditions

Pressure 29.86 in
Visibility 6.0 miles
Clouds Scattered Clouds 1500 ft
Scattered Clouds 2000 ft
Dew Point 59 °F
Humidity 78%
Rainfall 0.00 in
Snow Depth Not available.
UV 3 out of 12
Pollen 7.30 out of 12
Ozone Good
PM2.5 Moderate
Flu Activity Not available.
METAR KSQL 021648Z 00000KT 6SM HZ SCT015 SCT020 19/15 A2986

More Conditions Fewer Conditions

10-Day Weather Forecast

Almanac

Astronomy

Sep. 02, 2014 Rise Set
Actual Time 6:39 AM PDT 7:35 PM PDT
Civil Twilight 6:12 AM PDT 8:02 PM PDT
Nautical Twilight 5:41 AM PDT 8:34 PM PDT
Astronomical Twilight 5:08 AM PDT 9:07 PM PDT
Moon 2:21 PM PDT No Moon Set
Length of Visible Light 13h 49m
Length of Day
12h 56m
Tomorrow will be 2m 20s shorter.
First Quarter, 53% of the Moon is Illuminated
Today
First Quarter
Sep 8
Full
Sep 15
Last Quarter
Sep 24
New
Oct 1
First Quarter

Today's Extremes

State Highs State Lows

Community

WunderPhotos

Upload Photos

1,749,721 photos uploaded!

WunderBlogs® & News

By Dr. Jeff Masters
Director of Meteorology, Weather Underground
By Kari Strenfel
Meteorologist, Weather Underground
By Christopher C. Burt
Weather Historian, Weather Underground
September 2, 2014
September 2, 2014
September 2, 2014

Nearby

Air Quality

  Air Quality AQ Index Pollutant
Yesterday Moderate
PM2.5
Yesterday Good
OZONE
Current Moderate
PM2.5
Current Good
OZONE
Tuesday Good
OZONE
Wednesday Good
OZONE
Thursday Good
OZONE
Friday Good
OZONE

Snow Depth

Station Depth Elevation
Blue Lakes 0 in 8000 ft
Forestdale Creek 0 in 8029 ft
Hagan's Meadow 0 in 8000 ft
CSS Lab 2 in 6900 ft
Summit Meadow 1 in 9122 ft

Earthquake Activity

City Distance Mag. Time & Date
Yountville, California 50 miles 2.6 1:15 PM PDT
2014-09-01
Gilroy, California 59 miles 3.5 9:10 AM PDT
2014-09-01
Green Valley, California 40 miles 2.5 6:37 AM PDT
2014-08-31
Napa, California 41 miles 3.2 1:56 AM PDT
2014-08-31
Minimum magnitude displayed is 2.5.

Coastal Water Temperatures

Place Temperature
No Stations Reporting

Nearby Weather Stations